Morgan City, Louisiana
Current Conditions -  °F | °C
As of 7:35 AM on Sunday 21 Dec 2014 (Local Time) from KPTN Reporting Station
Overcast Overcast  
Wind Chill: 52°   Ceiling: 700
Heat Index: 52°   Visibility: 10mi
Dew Point: 46°   Wind: 6mph
Humidity: 82%   Direction: 70°ENE
Pressure: 30.12"   Gusts: NA
Location:  29.7°N, 91.2°W
Report Text: KPTN 211335Z AUTO 07005KT 10SM OVC007 11/08 A3012 RMK AO1
Loading
Personal Weather Stations






























Interactive Weather Map New forecast layout! Learn more

10-Day Weather Forecast

Advertisements
Track Severe Weather on mobile